Terrace Airport
CYXT : now visible

Airfield :











YOU CAN JOIN US ON...

 
LOGIN :

Register | Disclaimer

   EN    FR    IT 

 









Legend :    VFR   Marginal VFR   IFR   Intensive IFR   Very Intensive IFR
Visi :
Ceiling :
>= 8 km
>= 3000ft
5 to 8 km
1000 to 3000 ft
1500m to 5 km
500 to 1000 ft
800 to 1500m
200 to 500 ft
< 800m
< 200 ft
Symbols :   Thunderstorms  Fog  Heavy snow  Heavy precipitations  Wind > 20 kt






- Airport Elevation : 713 ft
- IATA code : YXT


CYXT - Terrace

CURRENT METAR :
  • 260600Z CCA VRB02KT 1 3/4SM -FZRA -SN BR FEW002 BKN006 OVC010 M01/M01 A3042 RMK SF2SF4SC2 RIME ON INDICATOR SLP315

EXPIRED METARs :
  • 260500Z VRB02KT 1 1/2SM -FZRA BCFG BR OVC006 M01/M01 A3041 RMK FG4SF4 SLP312
  • 260427Z 09004KT 040V110 1 1/2SM -FZRA BCFG BR OVC006 M01/M01 A3041 RMK FG4SF4 ICE ON INDICATOR SLP313
  • 260400Z 02004KT 2SM -FZRA -PL BR SCT002 OVC006 M01/M01 A3043 RMK SF4SF3 RIME ON INDICATOR SLP319

TAF AMD TAF CYXT
Valid from the 26 at 04:00 until the 26 at 13:00 UTC


260442Z 2604/2613 VRB03KT 1SM -FZRA -PL BR OVC006
TEMPO 2604/2609 6SM -SN SCT006 OVC012
FM260900 VRB03KT 1SM -FZDZ BR OVC004
TEMPO 2609/2613 4SM BR SCT004 OVC008 RMK NXT FCST BY 260700Z
CZVR FIR / North America



MET'MAP, your aeronautical weather chart ! - Copyright ORBIFLY December 2007 - Disclaimer

ORBIFLY MET'MAP TEAM :

Programming & Development : Alexandra Zaïnal
Concept & original design : Baudouin d'Aumeries
Assistance for programming : Marc-Olivier Méhu
Technical & hardware support : Manuel Goepfert

Contact : metmap@orbifly.com




SOURCES & CREDITS :

   NOAA       Earth
Advisory